Time;durP1;ratioP1;P1;durP2;ratioP2;P2;SDS_P1;SDS_P2;PMS_P1;PMS_P2;Temp;Humidity;BMP_temperature;BMP_pressure;BME280_temperature;BME280_humidity;BME280_pressure;Samples;Min_cycle;Max_cycle;Signal;HPM_P1;HPM_P2
2021/08/08 00:00:05;;;;;;;;;3.00;2.67;;;;;17.51;61.74;100545.09;4980717;28;45274;-82
2021/08/08 00:02:36;;;;;;;;;6.00;4.67;;;;;17.45;61.80;100540.00;4982331;28;45282;-82
2021/08/08 00:05:02;;;;;;;;;3.00;3.00;;;;;17.38;61.55;100523.38;4964346;28;46320;-82
2021/08/08 00:07:28;;;;;;;;;3.67;2.00;;;;;17.44;61.96;100548.91;4965477;28;45343;-82
2021/08/08 00:09:53;;;;;;;;;2.33;2.33;;;;;17.30;61.87;100520.13;4983257;28;45224;-82
2021/08/08 00:12:18;;;;;;;;;3.00;3.00;;;;;17.33;61.61;100531.53;4983899;28;45293;-82
2021/08/08 00:14:44;;;;;;;;;5.67;2.67;;;;;17.37;62.08;100550.91;4981214;28;45960;-82
2021/08/08 00:17:09;;;;;;;;;4.33;3.33;;;;;17.22;62.11;100530.19;4979282;28;45202;-82
2021/08/08 00:19:35;;;;;;;;;4.33;2.00;;;;;17.26;62.17;100547.75;4981035;28;45289;-82
2021/08/08 00:22:00;;;;;;;;;4.00;4.00;;;;;17.28;62.69;100562.75;4963216;28;45499;-82
2021/08/08 00:24:26;;;;;;;;;4.33;3.00;;;;;17.22;62.68;100551.47;4970827;28;46308;-82
2021/08/08 00:26:51;;;;;;;;;2.67;2.67;;;;;17.11;62.74;100542.03;4962018;28;45300;-82
2021/08/08 00:29:19;;;;;;;;;5.33;4.00;;;;;17.05;62.65;100538.72;4937463;28;45349;-82
2021/08/08 00:31:44;;;;;;;;;2.33;2.33;;;;;17.00;63.23;100533.56;4941490;28;45507;-82
2021/08/08 00:34:10;;;;;;;;;2.00;2.00;;;;;17.08;63.34;100555.47;4941923;28;46127;-82
2021/08/08 00:36:35;;;;;;;;;3.00;3.00;;;;;17.00;63.70;100545.97;4941718;28;45443;-82
2021/08/08 00:39:02;;;;;;;;;5.67;3.67;;;;;16.94;63.75;100539.06;4943660;28;45360;-82
2021/08/08 00:41:27;;;;;;;;;3.75;3.00;;;;;16.97;63.96;100547.84;4943803;28;45424;-82
2021/08/08 00:43:53;;;;;;;;;3.33;3.33;;;;;16.87;63.76;100548.19;4943337;28;45362;-82
2021/08/08 00:46:18;;;;;;;;;5.33;3.00;;;;;16.89;63.75;100543.66;4941814;28;45291;-82
2021/08/08 00:48:43;;;;;;;;;3.33;2.00;;;;;16.97;64.09;100565.56;4942189;28;45644;-82
2021/08/08 00:51:09;;;;;;;;;3.75;2.50;;;;;16.83;64.03;100549.19;4941898;28;45335;-83
2021/08/08 00:53:34;;;;;;;;;4.67;3.00;;;;;16.92;64.43;100568.38;4943801;28;47078;-82
2021/08/08 00:56:00;;;;;;;;;4.00;4.00;;;;;16.72;64.33;100537.09;4943414;28;45233;-83
2021/08/08 00:58:29;;;;;;;;;4.00;4.00;;;;;16.79;64.41;100555.56;4942804;28;45229;-82
2021/08/08 01:01:01;;;;;;;;;5.50;3.50;;;;;16.76;64.52;100557.34;4942035;28;45715;-82
2021/08/08 01:03:27;;;;;;;;;3.00;3.00;;;;;16.78;64.73;100562.63;4945988;28;45655;-82
2021/08/08 01:06:04;;;;;;;;;2.33;2.33;;;;;16.68;64.53;100550.50;4944437;28;45446;-82
2021/08/08 01:08:30;;;;;;;;;3.00;3.00;;;;;16.75;64.59;100568.03;4942265;28;45446;-82
2021/08/08 01:10:56;;;;;;;;;3.67;2.67;;;;;16.67;64.74;100547.00;4923964;28;45501;-83
2021/08/08 01:13:23;;;;;;;;;4.00;4.00;;;;;16.67;64.50;100551.44;4941846;28;45531;-82
2021/08/08 01:15:50;;;;;;;;;4.50;4.50;;;;;16.75;64.96;100562.69;4924086;28;45252;-83
2021/08/08 01:18:16;;;;;;;;;4.33;4.33;;;;;16.74;64.80;100561.84;4941869;28;45295;-83
2021/08/08 01:20:47;;;;;;;;;3.50;3.50;;;;;16.77;64.75;100568.88;4944789;28;45199;-82
2021/08/08 01:23:20;;;;;;;;;4.00;3.33;;;;;16.67;64.87;100554.97;4939963;28;48400;-82
2021/08/08 01:25:46;;;;;;;;;5.67;5.00;;;;;16.62;64.77;100550.72;4946280;28;45345;-82
2021/08/08 01:28:12;;;;;;;;;4.00;4.00;;;;;16.77;65.25;100576.84;4948946;28;45413;-82
2021/08/08 01:30:38;;;;;;;;;6.00;3.00;;;;;16.72;65.00;100574.31;4940942;28;45354;-82
2021/08/08 01:33:05;;;;;;;;;4.00;4.00;;;;;16.71;65.42;100577.91;4921822;28;45985;-82
2021/08/08 01:35:31;;;;;;;;;3.00;3.00;;;;;16.65;65.14;100559.50;4942345;28;45193;-82
2021/08/08 01:37:58;;;;;;;;;4.67;2.00;;;;;16.74;65.47;100579.59;4927633;28;45224;-82
2021/08/08 01:40:25;;;;;;;;;3.00;3.00;;;;;16.80;65.24;100583.88;4947508;28;44879;-82
2021/08/08 01:42:54;;;;;;;;;4.33;4.33;;;;;16.75;65.40;100576.84;4930187;28;46277;-82
2021/08/08 01:45:21;;;;;;;;;3.00;2.00;;;;;16.64;64.80;100559.53;4952438;28;45231;-82
2021/08/08 01:47:51;;;;;;;;;5.00;3.00;;;;;16.79;65.30;100583.00;4964201;28;45284;-82
2021/08/08 01:50:18;;;;;;;;;3.67;3.33;;;;;16.79;65.16;100588.31;4966936;28;45428;-82
2021/08/08 01:52:45;;;;;;;;;4.67;4.67;;;;;16.82;65.23;100588.22;4967192;28;45271;-82
2021/08/08 01:55:10;;;;;;;;;3.67;3.33;;;;;16.79;65.45;100571.50;4964278;28;45247;-83
2021/08/08 01:57:36;;;;;;;;;3.00;3.00;;;;;16.70;65.47;100570.81;4963710;28;45381;-82
2021/08/08 02:00:08;;;;;;;;;2.33;2.33;;;;;16.76;65.55;100581.28;4946016;28;45267;-82
2021/08/08 02:02:34;;;;;;;;;4.00;4.00;;;;;16.72;65.60;100574.31;4945581;28;46185;-82
2021/08/08 02:05:00;;;;;;;;;4.00;4.00;;;;;16.71;65.92;100577.91;4963521;28;45366;-82
2021/08/08 02:07:26;;;;;;;;;3.00;2.00;;;;;16.76;65.89;100586.59;4963359;28;45447;-82
2021/08/08 02:09:51;;;;;;;;;7.00;4.00;;;;;16.63;65.64;100569.28;4963460;28;45472;-82
2021/08/08 02:12:17;;;;;;;;;7.00;3.00;;;;;16.63;65.92;100574.59;4945902;28;47197;-82
2021/08/08 02:14:42;;;;;;;;;3.00;2.00;;;;;16.63;65.78;100576.41;4964868;28;45300;-82
2021/08/08 02:17:08;;;;;;;;;3.00;3.00;;;;;16.53;65.92;100578.47;4966357;28;45746;-83
2021/08/08 02:19:34;;;;;;;;;4.33;4.33;;;;;16.62;66.45;100596.78;4948922;28;45370;-82
2021/08/08 02:22:01;;;;;;;;;3.33;3.33;;;;;16.53;66.07;100579.31;4966483;28;45271;-82
2021/08/08 02:24:29;;;;;;;;;4.00;4.00;;;;;16.59;66.01;100586.25;4953763;28;45433;-82
2021/08/08 02:26:54;;;;;;;;;3.00;3.00;;;;;16.61;66.50;100597.69;4929696;28;45346;-82
2021/08/08 02:29:20;;;;;;;;;2.67;2.67;;;;;16.61;66.51;100608.34;4946729;28;45145;-82
2021/08/08 02:31:45;;;;;;;;;3.67;3.67;;;;;16.48;66.41;100583.91;4936007;28;48372;-82
2021/08/08 02:34:15;;;;;;;;;6.00;4.33;;;;;16.48;66.60;100580.41;4928596;28;45360;-83
2021/08/08 02:36:42;;;;;;;;;5.00;4.00;;;;;16.42;66.49;100585.91;4947409;28;45369;-83
2021/08/08 02:39:09;;;;;;;;;3.00;3.00;;;;;16.45;66.88;100593.78;4946957;28;45364;-82
2021/08/08 02:41:34;;;;;;;;;4.67;4.33;;;;;16.52;66.57;100605.97;4946903;28;45533;-82
2021/08/08 02:44:00;;;;;;;;;4.67;4.00;;;;;16.50;66.67;100605.13;4938383;28;45264;-83
2021/08/08 02:46:26;;;;;;;;;3.00;3.00;;;;;16.38;66.74;100594.88;4920829;28;45260;-82
2021/08/08 02:48:51;;;;;;;;;2.00;2.00;;;;;16.39;66.87;100599.28;4943188;28;45369;-82
2021/08/08 02:51:17;;;;;;;;;3.33;3.33;;;;;16.44;67.15;100611.50;4926065;28;48197;-82
2021/08/08 02:53:42;;;;;;;;;6.25;4.75;;;;;16.45;66.64;100623.00;4926492;28;45212;-82
2021/08/08 02:56:08;;;;;;;;;3.00;3.00;;;;;16.30;66.97;100597.75;4942247;28;45514;-83
2021/08/08 02:58:33;;;;;;;;;5.75;5.00;;;;;16.28;66.89;100599.59;4926195;28;45795;-82
2021/08/08 03:00:59;;;;;;;;;3.50;3.50;;;;;16.26;66.73;100596.13;4941237;28;47229;-83
2021/08/08 03:03:25;;;;;;;;;5.00;4.00;;;;;16.41;66.99;100616.94;4941824;28;45394;-82
2021/08/08 03:05:50;;;;;;;;;7.33;4.33;;;;;16.39;66.95;100615.22;4943122;28;45355;-83
2021/08/08 03:08:16;;;;;;;;;5.00;5.00;;;;;16.35;66.89;100618.88;4943236;28;45442;-82
2021/08/08 03:10:41;;;;;;;;;4.00;4.00;;;;;16.26;67.02;100610.25;4941480;28;46382;-83
2021/08/08 03:13:07;;;;;;;;;5.67;4.67;;;;;16.27;66.75;100609.34;4943203;28;45439;-82
2021/08/08 03:15:32;;;;;;;;;5.00;4.00;;;;;16.38;67.10;100635.59;4925239;28;45397;-82
2021/08/08 03:17:58;;;;;;;;;7.25;5.50;;;;;16.25;67.12;100608.53;4943047;28;45378;-82
2021/08/08 03:20:23;;;;;;;;;4.00;3.00;;;;;16.19;67.11;100610.47;4925150;28;45854;-83
2021/08/08 03:22:48;;;;;;;;;5.00;3.75;;;;;16.31;66.89;100626.94;4942957;28;45340;-82
2021/08/08 03:25:14;;;;;;;;;3.75;3.25;;;;;16.24;67.04;100625.38;4942591;28;45808;-83
2021/08/08 03:27:39;;;;;;;;;5.75;4.25;;;;;16.14;67.70;100604.44;4943652;28;45446;-82
2021/08/08 03:30:07;;;;;;;;;4.75;3.50;;;;;16.21;66.92;100622.81;4925722;28;47988;-83
2021/08/08 03:32:33;;;;;;;;;2.00;1.67;;;;;16.14;67.14;100618.56;4942567;28;45364;-83
2021/08/08 03:34:58;;;;;;;;;4.50;4.50;;;;;16.23;67.39;100636.91;4942950;28;45474;-82
2021/08/08 03:37:24;;;;;;;;;4.25;3.75;;;;;16.02;67.55;100616.28;4942970;28;45419;-82
2021/08/08 03:39:49;;;;;;;;;5.75;5.75;;;;;16.17;67.24;100652.16;4941309;28;47672;-82
2021/08/08 03:42:14;;;;;;;;;4.50;3.25;;;;;15.98;67.77;100611.97;4925127;28;45455;-82
2021/08/08 03:44:40;;;;;;;;;7.00;6.00;;;;;16.04;67.43;100630.41;4925102;28;45445;-82
2021/08/08 03:47:05;;;;;;;;;5.75;5.00;;;;;15.99;67.21;100627.88;4924756;28;45338;-82
2021/08/08 03:49:31;;;;;;;;;5.00;4.00;;;;;16.09;67.64;100653.25;4942306;28;45556;-83
2021/08/08 03:51:56;;;;;;;;;6.00;5.00;;;;;15.95;67.88;100625.34;4941089;28;45380;-83
2021/08/08 03:54:21;;;;;;;;;4.50;4.00;;;;;16.06;67.55;100649.78;4941193;28;45308;-82
2021/08/08 03:56:47;;;;;;;;;5.75;5.75;;;;;15.97;67.79;100635.00;4942462;28;45522;-82
2021/08/08 03:59:12;;;;;;;;;6.00;6.00;;;;;16.07;67.91;100655.06;4924301;28;46493;-82
2021/08/08 04:01:37;;;;;;;;;4.00;3.00;;;;;15.89;67.25;100626.38;4940461;28;45570;-82
2021/08/08 04:04:03;;;;;;;;;4.00;2.75;;;;;16.00;67.35;100648.19;4925120;28;45591;-82
2021/08/08 04:06:29;;;;;;;;;5.75;5.75;;;;;15.86;67.46;100623.81;4940989;28;45434;-82
2021/08/08 04:08:54;;;;;;;;;5.00;3.75;;;;;15.93;67.50;100637.78;4942174;28;45342;-82
2021/08/08 04:11:19;;;;;;;;;6.25;4.75;;;;;15.96;67.74;100643.00;4942255;28;45212;-82
2021/08/08 04:13:45;;;;;;;;;6.00;5.00;;;;;15.99;67.68;100634.97;4942428;28;45156;-82
2021/08/08 04:16:10;;;;;;;;;7.50;5.00;;;;;16.13;67.60;100663.78;4940534;28;45168;-82
2021/08/08 04:18:35;;;;;;;;;8.00;6.25;;;;;16.02;67.57;100649.03;4942246;28;45386;-82
2021/08/08 04:21:01;;;;;;;;;6.75;5.50;;;;;16.07;67.58;100648.91;4941850;28;45283;-83
2021/08/08 04:23:28;;;;;;;;;4.50;3.50;;;;;16.02;67.31;100657.00;4925291;28;45830;-83
2021/08/08 04:25:53;;;;;;;;;5.50;3.50;;;;;16.05;67.26;100653.38;4941995;28;45248;-82
2021/08/08 04:28:19;;;;;;;;;4.75;4.75;;;;;16.17;67.21;100679.59;4941934;28;45594;-82
2021/08/08 04:30:44;;;;;;;;;4.00;4.00;;;;;16.14;67.09;100670.84;4924287;28;45292;-82
2021/08/08 04:33:10;;;;;;;;;5.50;5.00;;;;;16.10;66.80;100662.09;4937655;28;45348;-83
2021/08/08 04:35:37;;;;;;;;;5.00;4.00;;;;;16.19;66.59;100679.53;4940561;28;45478;-82
2021/08/08 04:38:04;;;;;;;;;4.00;4.00;;;;;16.08;66.35;100663.91;4941874;28;46204;-83
2021/08/08 04:40:29;;;;;;;;;3.00;3.00;;;;;16.06;65.99;100663.97;4924195;28;45333;-82
2021/08/08 04:42:55;;;;;;;;;6.25;6.25;;;;;16.05;66.17;100667.53;4941701;28;45255;-82
2021/08/08 04:45:21;;;;;;;;;5.00;4.25;;;;;16.07;66.14;100681.63;4941233;28;45574;-82
2021/08/08 04:47:47;;;;;;;;;4.00;4.00;;;;;16.01;66.25;100671.19;4941618;28;45258;-82
2021/08/08 04:50:13;;;;;;;;;3.25;3.25;;;;;16.02;65.88;100659.63;4941463;28;45251;-83
2021/08/08 04:52:39;;;;;;;;;7.00;6.00;;;;;16.01;65.83;100678.25;4941585;28;45276;-82
2021/08/08 04:55:06;;;;;;;;;5.50;4.75;;;;;16.02;65.97;100678.22;4940310;28;45348;-82
2021/08/08 04:57:32;;;;;;;;;5.25;4.00;;;;;15.96;66.06;100675.75;4941440;28;46578;-82
2021/08/08 04:59:57;;;;;;;;;5.25;5.25;;;;;16.01;66.06;100684.47;4941433;28;45406;-83
2021/08/08 05:02:22;;;;;;;;;3.00;3.00;;;;;16.02;65.95;100677.38;4940076;28;45256;-83
2021/08/08 05:04:48;;;;;;;;;5.50;5.50;;;;;16.01;66.35;100687.13;4941528;28;45530;-82
2021/08/08 05:07:13;;;;;;;;;8.00;6.00;;;;;15.92;65.65;100657.28;4942075;28;45283;-82
2021/08/08 05:09:39;;;;;;;;;5.33;5.33;;;;;16.07;65.65;100684.28;4941470;28;45269;-82
2021/08/08 05:12:07;;;;;;;;;9.00;5.25;;;;;15.92;65.81;100662.59;4927540;28;45281;-82
2021/08/08 05:14:33;;;;;;;;;5.50;4.50;;;;;15.99;65.96;100673.00;4944717;28;45205;-83
2021/08/08 05:16:59;;;;;;;;;2.25;2.25;;;;;15.92;65.80;100660.81;4944373;28;46327;-82
2021/08/08 05:19:25;;;;;;;;;5.67;4.00;;;;;16.02;65.47;100674.72;4943179;28;46086;-82
2021/08/08 05:21:51;;;;;;;;;5.00;4.50;;;;;15.98;65.66;100668.59;4943581;28;45331;-82
2021/08/08 05:24:19;;;;;;;;;4.33;4.33;;;;;16.03;65.36;100671.13;4935683;28;45442;-82
2021/08/08 05:26:44;;;;;;;;;6.00;4.00;;;;;16.13;65.79;100683.25;4963873;28;46195;-82
2021/08/08 05:29:10;;;;;;;;;5.75;4.25;;;;;16.11;65.06;100674.44;4963901;28;45269;-82
2021/08/08 05:31:35;;;;;;;;;5.00;3.00;;;;;16.13;65.01;100687.69;4964213;28;45594;-82
2021/08/08 05:34:01;;;;;;;;;7.00;6.00;;;;;16.21;65.32;100691.00;4963912;28;45215;-82
2021/08/08 05:36:26;;;;;;;;;6.75;5.25;;;;;16.18;65.36;100672.50;4963757;28;46283;-82
2021/08/08 05:38:51;;;;;;;;;5.00;4.00;;;;;16.21;65.43;100681.25;4946171;28;45322;-82
2021/08/08 05:41:17;;;;;;;;;4.00;4.00;;;;;16.16;65.22;100669.88;4962930;28;45234;-82
2021/08/08 05:43:42;;;;;;;;;5.67;5.00;;;;;16.19;65.25;100663.59;4943633;28;45412;-82
2021/08/08 05:46:07;;;;;;;;;5.00;4.67;;;;;16.16;65.28;100659.25;4955674;28;45334;-82
2021/08/08 05:48:33;;;;;;;;;5.67;5.67;;;;;16.24;65.44;100669.66;4962239;28;45250;-82
2021/08/08 05:50:58;;;;;;;;;3.67;3.67;;;;;16.27;65.23;100675.75;4963723;28;45537;-83
2021/08/08 05:53:23;;;;;;;;;4.00;4.00;;;;;16.35;64.78;100693.28;4963542;28;45452;-82
2021/08/08 05:55:51;;;;;;;;;5.00;5.00;;;;;16.37;65.55;100696.75;4963410;28;46580;-82
2021/08/08 05:58:17;;;;;;;;;4.67;4.00;;;;;16.24;65.04;100681.16;4962073;28;45481;-82
2021/08/08 06:00:42;;;;;;;;;3.33;3.33;;;;;16.27;65.13;100677.53;4961909;28;45436;-83
2021/08/08 06:03:11;;;;;;;;;3.00;3.00;;;;;16.29;65.13;100694.31;4963784;28;45971;-82
2021/08/08 06:05:38;;;;;;;;;8.25;6.50;;;;;16.30;65.26;100685.41;4963730;28;46187;-82
2021/08/08 06:08:05;;;;;;;;;4.00;4.00;;;;;16.25;65.11;100677.59;4962439;28;45453;-82
2021/08/08 06:10:30;;;;;;;;;6.25;5.75;;;;;16.38;65.04;100701.16;4966652;28;45513;-83
2021/08/08 06:12:56;;;;;;;;;7.00;6.00;;;;;16.30;65.11;100688.06;4966980;28;45316;-82
2021/08/08 06:15:21;;;;;;;;;5.75;5.25;;;;;16.48;64.77;100714.13;4965601;28;47345;-83
2021/08/08 06:17:47;;;;;;;;;6.00;4.00;;;;;16.50;64.74;100719.41;4963840;28;45461;-82
2021/08/08 06:20:13;;;;;;;;;9.67;6.00;;;;;16.42;64.52;100697.50;4963263;28;45418;-82
2021/08/08 06:22:38;;;;;;;;;3.00;3.00;;;;;16.52;64.53;100722.91;4962993;28;45409;-82
2021/08/08 06:25:04;;;;;;;;;6.25;5.25;;;;;16.52;64.72;100717.59;4948058;28;45442;-82
2021/08/08 06:27:30;;;;;;;;;4.33;4.00;;;;;16.41;64.45;100704.63;4944056;28;45161;-82
2021/08/08 06:29:55;;;;;;;;;6.50;3.50;;;;;16.50;64.15;100712.31;4944599;28;45228;-82
2021/08/08 06:32:20;;;;;;;;;8.75;4.75;;;;;16.51;64.51;100735.28;4943011;28;45383;-82
2021/08/08 06:34:46;;;;;;;;;5.75;4.25;;;;;16.49;63.67;100707.03;4943475;28;45268;-82
2021/08/08 06:37:11;;;;;;;;;8.50;6.50;;;;;16.62;63.58;100727.00;4941961;28;45268;-82
2021/08/08 06:39:37;;;;;;;;;3.67;3.00;;;;;16.71;63.46;100741.84;4943612;28;45305;-82
2021/08/08 06:42:03;;;;;;;;;3.00;3.00;;;;;16.59;63.57;100715.63;4943154;28;45486;-82
2021/08/08 06:44:28;;;;;;;;;5.67;5.67;;;;;16.76;63.17;100742.59;4930676;28;47171;-82
2021/08/08 06:46:55;;;;;;;;;4.67;4.00;;;;;16.81;63.12;100735.34;4941415;28;45420;-82
2021/08/08 06:49:20;;;;;;;;;4.00;4.00;;;;;16.82;63.04;100726.47;4942045;28;45455;-82
2021/08/08 06:51:46;;;;;;;;;6.67;4.33;;;;;16.95;62.71;100735.84;4943224;28;45361;-82
2021/08/08 06:54:14;;;;;;;;;4.33;4.33;;;;;16.97;62.64;100730.44;4925723;28;47073;-82
2021/08/08 06:56:40;;;;;;;;;5.00;5.00;;;;;17.03;62.41;100740.06;4941804;28;45448;-82
2021/08/08 06:59:05;;;;;;;;;4.00;4.00;;;;;16.98;62.12;100722.44;4941887;28;45473;-82
2021/08/08 07:01:31;;;;;;;;;4.00;3.00;;;;;17.06;62.29;100726.66;4943126;28;45225;-82
2021/08/08 07:03:56;;;;;;;;;5.00;3.67;;;;;17.13;62.37;100730.84;4945107;28;47172;-82
2021/08/08 07:06:22;;;;;;;;;8.00;5.33;;;;;17.11;61.74;100714.97;4962423;28;45148;-82
2021/08/08 07:08:47;;;;;;;;;5.00;4.00;;;;;17.33;61.50;100757.72;4945191;28;45289;-82
2021/08/08 07:11:12;;;;;;;;;5.00;5.00;;;;;17.29;61.74;100741.88;4962365;28;45248;-83
2021/08/08 07:13:41;;;;;;;;;6.67;4.00;;;;;17.32;61.36;100750.66;4944810;28;46019;-82
2021/08/08 07:16:07;;;;;;;;;6.33;4.33;;;;;17.42;61.16;100762.72;4961933;28;45437;-82
2021/08/08 07:18:33;;;;;;;;;5.00;5.00;;;;;17.57;60.94;100777.34;4962416;28;45430;-82
2021/08/08 07:20:58;;;;;;;;;6.00;5.00;;;;;17.53;61.13;100753.53;4960753;28;45425;-82
2021/08/08 07:23:23;;;;;;;;;2.67;2.67;;;;;17.61;60.46;100760.38;4956004;28;47297;-82
2021/08/08 07:25:49;;;;;;;;;5.67;4.67;;;;;17.81;60.38;100775.72;4942844;28;45238;-81
2021/08/08 07:28:14;;;;;;;;;8.00;6.67;;;;;17.85;59.80;100760.50;4941850;28;45645;-82
2021/08/08 07:30:40;;;;;;;;;6.33;4.67;;;;;17.90;60.04;100761.22;4924994;28;45435;-82
2021/08/08 07:33:06;;;;;;;;;3.67;2.67;;;;;18.02;59.71;100762.63;4921346;28;45942;-81
2021/08/08 07:35:32;;;;;;;;;5.00;4.00;;;;;18.02;59.27;100765.28;4941403;28;45261;-82
2021/08/08 07:37:57;;;;;;;;;9.00;6.00;;;;;18.03;59.41;100770.53;4945484;28;45317;-82
2021/08/08 07:40:22;;;;;;;;;5.33;2.33;;;;;17.99;58.89;100771.56;4943340;28;45513;-82
2021/08/08 07:42:51;;;;;;;;;5.67;4.00;;;;;18.00;58.29;100770.66;4942510;28;47386;-81
2021/08/08 07:45:18;;;;;;;;;5.00;3.33;;;;;18.09;58.40;100788.09;4942650;28;45466;-82
2021/08/08 07:47:43;;;;;;;;;3.67;3.67;;;;;18.07;58.39;100781.97;4942662;28;45418;-82
2021/08/08 07:50:09;;;;;;;;;5.00;5.00;;;;;18.03;58.77;100778.53;4924992;28;45569;-82
2021/08/08 07:52:36;;;;;;;;;5.67;4.67;;;;;18.04;58.43;100777.63;4941165;28;48224;-82
2021/08/08 07:55:03;;;;;;;;;2.00;1.00;;;;;18.14;58.57;100793.28;4960546;28;45199;-82
2021/08/08 07:57:28;;;;;;;;;4.00;4.00;;;;;18.07;58.34;100776.66;4963087;28;45212;-81
2021/08/08 07:59:54;;;;;;;;;5.00;4.67;;;;;18.13;57.78;100797.75;4944492;28;46141;-82
2021/08/08 08:02:19;;;;;;;;;3.33;2.33;;;;;18.16;58.07;100791.44;4961448;28;46343;-81
2021/08/08 08:04:45;;;;;;;;;5.00;4.00;;;;;18.16;57.83;100802.09;4943944;28;45360;-82
2021/08/08 08:07:10;;;;;;;;;3.00;3.00;;;;;18.20;57.90;100817.94;4944096;28;45358;-82
2021/08/08 08:09:36;;;;;;;;;2.00;2.00;;;;;18.17;57.29;100815.34;4944099;28;45432;-82
2021/08/08 08:12:01;;;;;;;;;6.00;5.00;;;;;18.11;57.25;100810.25;4960155;28;46765;-81
2021/08/08 08:14:26;;;;;;;;;3.00;3.00;;;;;18.09;57.71;100809.41;4956778;28;45429;-82
2021/08/08 08:16:52;;;;;;;;;5.00;4.67;;;;;18.16;57.50;100820.75;4929771;28;45417;-81
2021/08/08 08:19:17;;;;;;;;;6.67;5.00;;;;;18.29;57.57;100828.28;4923626;28;45450;-82
2021/08/08 08:21:44;;;;;;;;;3.67;2.33;;;;;18.41;56.94;100836.75;4941896;28;45256;-82
2021/08/08 08:24:10;;;;;;;;;4.25;4.00;;;;;18.44;57.23;100823.31;4941753;28;45318;-82
2021/08/08 08:26:35;;;;;;;;;4.33;4.00;;;;;18.48;56.95;100823.16;4924587;28;45266;-82
2021/08/08 08:29:01;;;;;;;;;3.00;3.00;;;;;18.60;56.25;100815.66;4924695;28;45490;-82
2021/08/08 08:31:26;;;;;;;;;6.00;4.00;;;;;18.72;56.42;100839.22;4934158;28;46381;-82
2021/08/08 08:33:52;;;;;;;;;5.00;4.00;;;;;18.67;55.87;100834.03;4941941;28;45352;-82
2021/08/08 08:36:17;;;;;;;;;2.00;2.00;;;;;18.68;56.07;100833.16;4941954;28;45261;-82
2021/08/08 08:38:42;;;;;;;;;5.00;3.67;;;;;18.64;55.54;100826.16;4924366;28;45308;-82
2021/08/08 08:41:10;;;;;;;;;5.50;4.75;;;;;18.70;55.16;100833.06;4931897;28;48170;-82
2021/08/08 08:43:35;;;;;;;;;5.67;2.00;;;;;18.73;55.22;100835.63;4913382;28;45549;-82
2021/08/08 08:46:02;;;;;;;;;3.33;3.33;;;;;18.76;55.58;100840.00;4941346;28;45430;-81
2021/08/08 08:48:30;;;;;;;;;4.33;4.00;;;;;18.79;55.38;100830.13;4924465;28;45384;-82
2021/08/08 08:50:56;;;;;;;;;4.33;3.00;;;;;18.91;55.61;100834.13;4941355;28;46478;-82
2021/08/08 08:53:22;;;;;;;;;4.00;3.00;;;;;19.04;54.57;100834.53;4941424;28;45180;-81
2021/08/08 08:55:50;;;;;;;;;5.00;4.00;;;;;19.18;54.43;100841.09;4941643;28;45161;-81
2021/08/08 08:58:16;;;;;;;;;6.00;3.67;;;;;19.24;53.41;100841.78;4941663;28;45350;-82
2021/08/08 09:00:41;;;;;;;;;4.67;4.00;;;;;19.32;53.96;100839.69;4941103;28;45574;-82
2021/08/08 09:03:07;;;;;;;;;3.33;3.33;;;;;19.41;53.68;100851.84;4941356;28;45411;-82
2021/08/08 09:05:32;;;;;;;;;6.67;4.33;;;;;19.41;52.49;100850.03;4924458;28;45378;-82
2021/08/08 09:07:58;;;;;;;;;3.67;3.00;;;;;19.50;53.07;100844.31;4924178;28;45390;-82
2021/08/08 09:10:23;;;;;;;;;3.33;3.33;;;;;19.63;52.27;100844.72;4940577;28;48086;-81
2021/08/08 09:13:00;;;;;;;;;3.33;3.33;;;;;19.71;52.08;100842.63;4925032;28;45331;-82
2021/08/08 09:15:37;;;;;;;;;5.00;4.00;;;;;19.72;51.79;100839.03;4924236;28;45325;-82
2021/08/08 09:18:11;;;;;;;;;5.00;3.67;;;;;19.77;52.23;100833.50;4941342;28;45303;-82
2021/08/08 09:20:36;;;;;;;;;4.00;2.67;;;;;19.76;52.56;100845.13;4941656;28;48173;-82
2021/08/08 09:23:02;;;;;;;;;5.00;3.33;;;;;19.76;52.08;100839.78;4958609;28;45276;-82
2021/08/08 09:25:27;;;;;;;;;5.33;4.33;;;;;19.80;52.26;100850.25;4941005;28;45668;-82
2021/08/08 09:28:05;;;;;;;;;4.00;2.67;;;;;19.94;51.86;100848.84;4941212;28;45378;-82
2021/08/08 09:30:37;;;;;;;;;4.33;3.00;;;;;20.13;51.83;100847.16;4923300;28;46270;-82
2021/08/08 09:33:04;;;;;;;;;4.00;3.33;;;;;20.36;51.08;100859.53;4936503;28;45196;-82
2021/08/08 09:35:35;;;;;;;;;6.00;3.00;;;;;20.46;51.55;100858.22;4939209;28;45405;-82
2021/08/08 09:38:03;;;;;;;;;1.67;1.67;;;;;20.63;50.54;100860.19;4923632;28;45862;-82
2021/08/08 09:40:28;;;;;;;;;2.33;2.00;;;;;20.68;49.74;100843.94;4939283;28;47400;-82
2021/08/08 09:42:54;;;;;;;;;4.00;3.33;;;;;20.76;49.19;100857.00;4940844;28;45421;-82
2021/08/08 09:45:33;;;;;;;;;5.00;3.00;;;;;20.73;49.06;100841.94;4940801;28;45316;-81
2021/08/08 09:47:58;;;;;;;;;4.00;4.00;;;;;20.63;48.74;100841.47;4923541;28;45543;-81
2021/08/08 09:50:25;;;;;;;;;3.00;2.00;;;;;20.60;46.42;100854.97;4939472;28;47950;-82
2021/08/08 09:52:55;;;;;;;;;4.00;3.00;;;;;20.71;46.22;100867.88;4939652;28;45237;-82
2021/08/08 09:55:34;;;;;;;;;4.67;3.67;;;;;20.75;45.99;100872.19;4939709;28;45282;-82
2021/08/08 09:58:02;;;;;;;;;5.00;3.00;;;;;20.83;47.00;100858.47;4942669;28;45535;-82
2021/08/08 10:00:35;;;;;;;;;4.00;2.67;;;;;21.05;47.15;100863.72;4943604;28;45473;-81
2021/08/08 10:03:04;;;;;;;;;3.33;3.33;;;;;21.20;46.78;100873.72;4943889;28;45464;-82
2021/08/08 10:05:34;;;;;;;;;4.00;3.67;;;;;21.24;45.49;100874.44;4942748;28;45460;-82
2021/08/08 10:08:06;;;;;;;;;3.00;3.00;;;;;21.28;45.09;100901.03;4942635;28;45807;-82
2021/08/08 10:10:33;;;;;;;;;3.00;2.33;;;;;21.28;45.26;100886.78;4944942;28;45476;-81
2021/08/08 10:13:16;;;;;;;;;4.00;4.00;;;;;21.29;44.57;100885.81;4943883;28;45225;-83
2021/08/08 10:15:44;;;;;;;;;3.00;2.00;;;;;21.30;44.65;100874.16;4943720;28;45453;-82
2021/08/08 10:18:18;;;;;;;;;4.00;4.00;;;;;21.33;45.37;100880.25;4926716;28;45466;-82
2021/08/08 10:20:44;;;;;;;;;5.33;3.00;;;;;21.21;45.96;100885.31;4942200;28;48405;-82
2021/08/08 10:23:14;;;;;;;;;5.33;2.00;;;;;21.10;45.19;100877.75;4943621;28;45236;-83
2021/08/08 10:25:45;;;;;;;;;5.67;4.00;;;;;20.93;45.29;100882.06;4943731;28;45482;-82
2021/08/08 10:28:11;;;;;;;;;6.67;5.00;;;;;20.78;46.09;100882.75;4943648;28;45392;-82
2021/08/08 10:30:38;;;;;;;;;4.00;3.33;;;;;20.83;46.61;100898.59;4945606;28;46623;-82
2021/08/08 10:33:05;;;;;;;;;3.67;3.33;;;;;20.82;46.57;100888.81;4951667;28;45470;-82
2021/08/08 10:35:43;;;;;;;;;4.00;3.00;;;;;20.83;46.22;100887.91;4942102;28;45464;-82
2021/08/08 10:38:09;;;;;;;;;3.67;2.67;;;;;20.88;46.79;100889.44;4926007;28;45492;-82
2021/08/08 10:40:37;;;;;;;;;2.33;2.33;;;;;21.09;46.57;100895.63;4944002;28;46161;-81
2021/08/08 10:43:04;;;;;;;;;4.00;3.00;;;;;21.29;45.57;100889.38;4944227;28;45303;-82
2021/08/08 10:45:32;;;;;;;;;4.00;4.00;;;;;21.52;45.09;100898.19;4943690;28;45381;-81
2021/08/08 10:48:02;;;;;;;;;3.00;3.00;;;;;21.66;45.03;100894.84;4943061;28;45537;-82
2021/08/08 10:50:56;;;;;;;;;3.33;3.33;;;;;21.83;45.22;100886.88;4943271;28;45457;-81
2021/08/08 10:53:27;;;;;;;;;2.00;2.00;;;;;22.05;44.74;100875.09;4939653;28;45341;-82
2021/08/08 10:56:03;;;;;;;;;2.33;2.33;;;;;22.25;43.70;100888.41;4943507;28;45418;-82
2021/08/08 10:58:39;;;;;;;;;4.00;3.00;;;;;22.34;42.59;100876.34;4943117;28;45481;-82
2021/08/08 11:01:19;;;;;;;;;2.67;2.67;;;;;22.36;43.58;100879.84;4925092;28;48342;-82
2021/08/08 11:03:52;;;;;;;;;3.00;2.00;;;;;22.42;41.83;100876.81;4943234;28;45491;-81
2021/08/08 11:06:21;;;;;;;;;2.67;2.67;;;;;22.56;42.59;100884.16;4945160;28;45305;-81
2021/08/08 11:08:51;;;;;;;;;4.00;3.00;;;;;22.64;41.84;100882.84;4959986;28;45485;-81
2021/08/08 11:11:21;;;;;;;;;4.00;4.00;;;;;22.76;42.55;100872.41;4962069;28;45555;-81
2021/08/08 11:13:47;;;;;;;;;4.33;3.00;;;;;22.90;42.48;100876.09;4944807;28;45401;-82
2021/08/08 11:16:13;;;;;;;;;6.00;5.00;;;;;23.02;42.11;100879.97;4962442;28;45433;-81
2021/08/08 11:18:39;;;;;;;;;3.67;3.33;;;;;23.11;41.95;100890.22;4963010;28;45477;-82
2021/08/08 11:21:12;;;;;;;;;1.33;1.33;;;;;23.21;41.06;100874.47;4944345;28;47161;-82